createdAt,value
2018-07-24T00:01:58.623Z,22.07
2018-07-24T00:04:28.435Z,22.01
2018-07-24T00:06:57.766Z,22.02
2018-07-24T00:09:27.293Z,22.05
2018-07-24T00:11:57.398Z,22.05
2018-07-24T00:14:26.046Z,22.06
2018-07-24T00:16:54.752Z,22.05
2018-07-24T00:19:23.444Z,21.99
2018-07-24T00:21:52.184Z,21.91
2018-07-24T00:24:21.709Z,21.79
2018-07-24T00:26:50.391Z,21.69
2018-07-24T00:29:19.602Z,21.67
2018-07-24T00:31:48.235Z,21.57
2018-07-24T00:34:17.009Z,21.65
2018-07-24T00:36:47.320Z,21.63
2018-07-24T00:39:15.985Z,21.63
2018-07-24T00:41:45.620Z,21.58
2018-07-24T00:44:15.118Z,21.55
2018-07-24T00:46:44.684Z,21.51
2018-07-24T00:49:14.266Z,21.40
2018-07-24T00:51:43.206Z,21.19
2018-07-24T00:54:12.274Z,21.14
2018-07-24T00:56:41.648Z,21.14
2018-07-24T00:59:11.174Z,21.12
2018-07-24T01:01:44.728Z,21.18
2018-07-24T01:04:14.826Z,21.26
2018-07-24T01:06:43.611Z,21.30
2018-07-24T01:09:13.088Z,21.26
2018-07-24T01:11:42.097Z,21.28
2018-07-24T01:14:11.158Z,21.19
2018-07-24T01:16:41.179Z,21.15
2018-07-24T01:19:10.598Z,21.19
2018-07-24T01:21:39.166Z,21.23
2018-07-24T01:24:08.465Z,21.17
2018-07-24T01:26:37.050Z,21.20
2018-07-24T01:29:05.835Z,21.20
2018-07-24T01:31:34.400Z,21.12
2018-07-24T01:34:03.766Z,21.14
2018-07-24T01:36:33.663Z,21.02
2018-07-24T01:39:03.767Z,20.99
2018-07-24T01:41:34.437Z,21.06
2018-07-24T01:44:03.251Z,21.04
2018-07-24T01:46:33.414Z,20.94
2018-07-24T01:49:01.998Z,20.81
2018-07-24T01:51:31.646Z,20.69
2018-07-24T01:54:01.381Z,20.61
2018-07-24T01:56:31.223Z,20.54
2018-07-24T01:59:01.175Z,20.58
2018-07-24T02:01:31.060Z,20.62
2018-07-24T02:04:01.170Z,20.69
2018-07-24T02:06:29.800Z,20.70
2018-07-24T02:08:58.484Z,20.73
2018-07-24T02:11:27.833Z,20.73
2018-07-24T02:13:57.455Z,20.74
2018-07-24T02:16:26.736Z,20.68
2018-07-24T02:18:56.373Z,20.69
2018-07-24T02:21:25.971Z,20.73
2018-07-24T02:23:54.959Z,20.73
2018-07-24T02:26:23.592Z,20.50
2018-07-24T02:28:52.630Z,20.41
2018-07-24T02:31:21.357Z,20.51
2018-07-24T02:33:50.266Z,20.51
2018-07-24T02:36:19.644Z,20.47
2018-07-24T02:38:48.961Z,20.40
2018-07-24T02:41:20.198Z,20.25
2018-07-24T02:43:49.535Z,20.20
2018-07-24T02:46:18.186Z,20.09
2018-07-24T02:48:47.464Z,20.15
2018-07-24T02:51:16.751Z,20.14
2018-07-24T02:53:45.421Z,20.05
2018-07-24T02:56:14.381Z,19.90
2018-07-24T02:58:43.612Z,19.98
2018-07-24T03:01:12.795Z,20.04
2018-07-24T03:03:41.403Z,20.05
2018-07-24T03:06:09.976Z,20.06
2018-07-24T03:08:39.703Z,20.00
2018-07-24T03:11:09.550Z,19.98
2018-07-24T03:13:39.616Z,19.80
2018-07-24T03:16:09.082Z,19.75
2018-07-24T03:18:40.101Z,19.73
2018-07-24T03:21:08.955Z,19.73
2018-07-24T03:23:40.532Z,19.70
2018-07-24T03:26:10.084Z,19.66
2018-07-24T03:28:40.012Z,19.66
2018-07-24T03:31:12.800Z,19.65
2018-07-24T03:33:41.460Z,19.71
2018-07-24T03:36:10.063Z,19.66
2018-07-24T03:38:39.315Z,19.64
2018-07-24T03:41:08.135Z,19.66
2018-07-24T03:43:37.539Z,19.63
2018-07-24T03:46:06.321Z,19.68
2018-07-24T03:48:35.006Z,19.74
2018-07-24T03:51:04.406Z,19.68
2018-07-24T03:53:33.084Z,19.71
2018-07-24T03:56:02.494Z,19.60
2018-07-24T03:58:31.151Z,19.67
2018-07-24T04:01:00.392Z,19.69
2018-07-24T04:03:29.099Z,19.68
2018-07-24T04:05:57.785Z,19.71
2018-07-24T04:08:26.492Z,19.74
2018-07-24T04:10:55.958Z,19.74
2018-07-24T04:13:24.692Z,19.68
2018-07-24T04:15:53.414Z,19.73
2018-07-24T04:18:22.012Z,19.75
2018-07-24T04:20:50.863Z,19.72
2018-07-24T04:23:19.492Z,19.72
2018-07-24T04:25:50.058Z,19.78
2018-07-24T04:28:18.665Z,19.80
2018-07-24T04:30:47.369Z,19.81
2018-07-24T04:33:15.996Z,19.86
2018-07-24T04:35:44.676Z,19.86
2018-07-24T04:38:13.366Z,19.87
2018-07-24T04:40:42.116Z,19.81
2018-07-24T04:43:11.047Z,19.77
2018-07-24T04:45:39.720Z,19.76
2018-07-24T04:48:09.233Z,19.75
2018-07-24T04:50:37.815Z,19.83
2018-07-24T04:53:06.932Z,19.87
2018-07-24T04:55:36.382Z,19.89
2018-07-24T04:58:05.367Z,19.90
2018-07-24T05:00:34.792Z,19.86
2018-07-24T05:03:04.362Z,19.83
2018-07-24T05:05:33.258Z,19.89
2018-07-24T05:08:02.289Z,19.89
2018-07-24T05:10:31.398Z,19.93
2018-07-24T05:13:00.052Z,19.93
2018-07-24T05:15:28.658Z,19.93
2018-07-24T05:17:57.650Z,20.01
2018-07-24T05:20:26.644Z,20.07
2018-07-24T05:22:55.628Z,20.17
2018-07-24T05:25:24.242Z,20.22
2018-07-24T05:27:52.909Z,20.21
2018-07-24T05:30:21.437Z,20.15
2018-07-24T05:32:50.077Z,20.29
2018-07-24T05:35:18.652Z,20.37
2018-07-24T05:37:47.273Z,20.55
2018-07-24T05:40:15.927Z,20.63
2018-07-24T05:42:45.247Z,20.70
2018-07-24T05:45:13.841Z,20.75
2018-07-24T05:47:42.514Z,20.80
2018-07-24T05:50:11.132Z,20.82
2018-07-24T05:52:39.813Z,20.92
2018-07-24T05:55:08.549Z,20.97
2018-07-24T05:57:37.136Z,21.04
2018-07-24T06:00:06.173Z,21.15
2018-07-24T06:02:34.767Z,21.27
2018-07-24T06:05:03.736Z,21.35
2018-07-24T06:07:32.429Z,21.39
2018-07-24T06:10:01.107Z,21.44
2018-07-24T06:12:29.840Z,21.49
2018-07-24T06:14:58.489Z,21.48
2018-07-24T06:17:27.843Z,21.48
2018-07-24T06:19:56.497Z,21.52
2018-07-24T06:22:25.687Z,21.68
2018-07-24T06:24:54.581Z,21.81
2018-07-24T06:27:23.151Z,21.96
2018-07-24T06:29:51.797Z,22.13
2018-07-24T06:32:20.779Z,22.25
2018-07-24T06:34:49.447Z,22.15
2018-07-24T06:37:18.189Z,22.28
2018-07-24T06:39:47.359Z,22.40
2018-07-24T06:42:16.007Z,22.45
2018-07-24T06:44:44.608Z,22.51
2018-07-24T06:47:13.450Z,22.58
2018-07-24T06:49:42.034Z,22.71
2018-07-24T06:52:11.352Z,22.82
2018-07-24T06:54:40.094Z,22.94
2018-07-24T06:57:08.775Z,23.02
2018-07-24T06:59:37.384Z,23.11
2018-07-24T07:02:06.165Z,22.93
2018-07-24T07:04:34.715Z,22.79
2018-07-24T07:07:03.349Z,23.02
2018-07-24T07:09:32.910Z,23.35
2018-07-24T07:12:02.077Z,23.41
2018-07-24T07:14:30.804Z,23.55
2018-07-24T07:16:59.468Z,23.66
2018-07-24T07:19:28.123Z,23.66
2018-07-24T07:21:57.348Z,23.84
2018-07-24T07:24:25.998Z,23.99
2018-07-24T07:26:54.668Z,24.09
2018-07-24T07:29:23.259Z,24.12
2018-07-24T07:31:52.560Z,24.23
2018-07-24T07:34:21.145Z,24.27
2018-07-24T07:36:50.480Z,24.40
2018-07-24T07:39:19.154Z,24.43
2018-07-24T07:41:47.750Z,24.49
2018-07-24T07:44:16.682Z,24.60
2018-07-24T07:46:45.853Z,24.63
2018-07-24T07:49:14.475Z,24.67
2018-07-24T07:51:43.077Z,24.78
2018-07-24T07:54:11.773Z,24.87
2018-07-24T07:56:40.424Z,24.97
2018-07-24T07:59:09.129Z,25.05
2018-07-24T08:01:37.798Z,25.14
2018-07-24T08:04:06.931Z,25.24
2018-07-24T08:06:35.549Z,25.32
2018-07-24T08:09:04.665Z,25.49
2018-07-24T08:11:33.356Z,25.62
2018-07-24T08:14:02.038Z,25.76
2018-07-24T08:16:30.659Z,25.82
2018-07-24T08:18:59.294Z,25.84
2018-07-24T08:21:28.237Z,25.90
2018-07-24T08:23:56.972Z,25.94
2018-07-24T08:26:25.709Z,26.03
2018-07-24T08:28:54.344Z,26.12
2018-07-24T08:31:23.000Z,26.19
2018-07-24T08:33:52.191Z,26.28
2018-07-24T08:36:20.818Z,26.44
2018-07-24T08:38:49.462Z,26.56
2018-07-24T08:41:19.185Z,26.66
2018-07-24T08:43:47.792Z,26.76
2018-07-24T08:46:16.432Z,26.88
2018-07-24T08:48:45.899Z,26.97
2018-07-24T08:51:14.505Z,27.06
2018-07-24T08:53:43.596Z,27.17
2018-07-24T08:56:11.784Z,27.29
2018-07-24T08:58:41.282Z,27.32
2018-07-24T09:01:10.004Z,27.30
2018-07-24T09:03:39.408Z,27.28
2018-07-24T09:06:08.326Z,27.36
2018-07-24T09:08:36.973Z,27.42
2018-07-24T09:11:05.632Z,27.46
2018-07-24T09:13:34.306Z,27.52
2018-07-24T09:16:02.934Z,27.56
2018-07-24T09:18:31.575Z,27.62
2018-07-24T09:21:00.262Z,27.75
2018-07-24T09:23:29.042Z,27.90
2018-07-24T09:25:57.723Z,27.98
2018-07-24T09:28:26.331Z,27.98
2018-07-24T09:30:55.008Z,28.06
2018-07-24T09:33:23.927Z,28.14
2018-07-24T09:35:52.566Z,28.28
2018-07-24T09:38:21.213Z,28.49
2018-07-24T09:40:50.077Z,28.65
2018-07-24T09:43:18.701Z,28.66
2018-07-24T09:45:47.627Z,28.69
2018-07-24T09:48:16.288Z,28.75
2018-07-24T09:50:44.926Z,28.71
2018-07-24T09:53:13.622Z,28.71
2018-07-24T09:55:42.336Z,28.70
2018-07-24T09:58:11.104Z,28.70
2018-07-24T10:00:45.023Z,28.88
2018-07-24T10:03:13.671Z,29.10
2018-07-24T10:05:42.337Z,29.23
2018-07-24T10:08:11.502Z,29.29
2018-07-24T10:10:40.150Z,29.23
2018-07-24T10:13:08.872Z,29.32
2018-07-24T10:15:37.540Z,29.39
2018-07-24T10:18:06.218Z,29.46
2018-07-24T10:20:34.948Z,29.44
2018-07-24T10:23:03.778Z,29.51
2018-07-24T10:25:33.617Z,29.64
2018-07-24T10:28:02.405Z,29.74
2018-07-24T10:30:31.261Z,29.76
2018-07-24T10:32:59.936Z,29.77
2018-07-24T10:35:28.928Z,29.78
2018-07-24T10:37:57.566Z,29.88
2018-07-24T10:40:26.709Z,29.99
2018-07-24T10:42:55.353Z,30.06
2018-07-24T10:45:24.034Z,30.03
2018-07-24T10:47:52.709Z,29.98
2018-07-24T10:50:21.440Z,30.11
2018-07-24T10:52:50.083Z,30.23
2018-07-24T10:55:18.863Z,30.33
2018-07-24T10:57:47.928Z,30.30
2018-07-24T11:00:16.627Z,30.47
2018-07-24T11:02:45.307Z,30.58
2018-07-24T11:05:14.010Z,30.43
2018-07-24T11:07:42.785Z,30.64
2018-07-24T11:10:11.879Z,30.74
2018-07-24T11:12:40.571Z,30.83
2018-07-24T11:15:09.197Z,30.81
2018-07-24T11:17:38.008Z,30.90
2018-07-24T11:20:06.664Z,30.90
2018-07-24T11:22:35.364Z,31.07
2018-07-24T11:25:04.084Z,31.29
2018-07-24T11:27:32.817Z,31.28
2018-07-24T11:30:02.448Z,31.10
2018-07-24T11:32:31.816Z,30.98
2018-07-24T11:35:00.453Z,30.95
2018-07-24T11:37:29.183Z,31.19
2018-07-24T11:39:57.856Z,31.30
2018-07-24T11:42:26.968Z,31.39
2018-07-24T11:44:55.669Z,31.49
2018-07-24T11:47:24.245Z,31.52
2018-07-24T11:49:53.005Z,31.44
2018-07-24T11:52:22.030Z,31.29
2018-07-24T11:54:50.668Z,31.16
2018-07-24T11:57:19.324Z,31.12
2018-07-24T11:59:47.981Z,31.01
2018-07-24T12:02:16.664Z,31.08
2018-07-24T12:04:45.421Z,31.07
2018-07-24T12:07:14.220Z,31.16
2018-07-24T12:09:43.328Z,31.11
2018-07-24T12:12:12.033Z,31.10
2018-07-24T12:14:40.660Z,31.38
2018-07-24T12:17:09.466Z,31.46
2018-07-24T12:19:38.481Z,31.45
2018-07-24T12:22:07.072Z,31.52
2018-07-24T12:24:35.814Z,31.44
2018-07-24T12:27:04.470Z,31.32
2018-07-24T12:29:33.267Z,31.42
2018-07-24T12:32:01.989Z,31.48
2018-07-24T12:34:30.701Z,31.51
2018-07-24T12:37:00.004Z,31.45
2018-07-24T12:39:28.606Z,31.56
2018-07-24T12:41:57.213Z,31.77
2018-07-24T12:44:25.871Z,32.02
2018-07-24T12:46:54.511Z,32.21
2018-07-24T12:49:24.105Z,32.43
2018-07-24T12:51:52.782Z,32.98
2018-07-24T12:54:21.483Z,34.39
2018-07-24T12:56:50.145Z,35.64
2018-07-24T12:59:19.098Z,36.43
2018-07-24T13:01:48.121Z,36.49
2018-07-24T13:04:16.838Z,35.64
2018-07-24T13:06:45.762Z,34.67
2018-07-24T13:09:14.347Z,34.94
2018-07-24T13:11:43.021Z,35.59
2018-07-24T13:14:12.520Z,36.21
2018-07-24T13:16:41.145Z,36.47
2018-07-24T13:19:09.812Z,36.90
2018-07-24T13:21:38.507Z,37.01
2018-07-24T13:24:07.297Z,37.65
2018-07-24T13:26:35.971Z,38.34
2018-07-24T13:29:04.598Z,38.32
2018-07-24T13:31:33.297Z,38.24
2018-07-24T13:34:01.914Z,38.29
2018-07-24T13:36:30.590Z,38.54
2018-07-24T13:38:59.152Z,38.94
2018-07-24T13:41:27.766Z,39.03
2018-07-24T13:43:56.909Z,39.18
2018-07-24T13:46:25.560Z,39.01
2018-07-24T13:48:54.920Z,38.70
2018-07-24T13:51:23.726Z,38.88
2018-07-24T13:53:52.361Z,39.29
2018-07-24T13:56:20.992Z,38.70
2018-07-24T13:58:49.736Z,38.06
2018-07-24T14:01:18.391Z,37.87
2018-07-24T14:03:48.164Z,37.76
2018-07-24T14:06:16.779Z,37.92
2018-07-24T14:08:45.581Z,38.29
2018-07-24T14:11:14.514Z,39.05
2018-07-24T14:13:43.145Z,39.71
2018-07-24T14:16:11.744Z,39.35
2018-07-24T14:18:41.177Z,39.33
2018-07-24T14:21:09.830Z,39.01
2018-07-24T14:23:39.278Z,39.88
2018-07-24T14:26:08.345Z,39.89
2018-07-24T14:28:37.065Z,39.65
2018-07-24T14:31:05.708Z,39.26
2018-07-24T14:33:34.334Z,37.96
2018-07-24T14:36:03.030Z,37.82
2018-07-24T14:38:31.753Z,37.32
2018-07-24T14:41:00.988Z,36.87
2018-07-24T14:43:29.639Z,36.34
2018-07-24T14:45:58.269Z,36.32
2018-07-24T14:48:27.062Z,36.73
2018-07-24T14:50:55.727Z,36.65
2018-07-24T14:53:24.627Z,36.78
2018-07-24T14:55:53.276Z,36.93
2018-07-24T14:58:22.659Z,37.15
2018-07-24T15:00:51.309Z,37.03
2018-07-24T15:03:19.954Z,36.85
2018-07-24T15:05:48.559Z,36.90
2018-07-24T15:08:17.209Z,36.66
2018-07-24T15:10:46.533Z,36.23
2018-07-24T15:13:15.207Z,35.62
2018-07-24T15:15:43.902Z,35.57
2018-07-24T15:18:13.212Z,35.37
2018-07-24T15:20:41.847Z,35.40
2018-07-24T15:23:10.507Z,35.03
2018-07-24T15:25:39.210Z,34.72
2018-07-24T15:28:07.839Z,34.99
2018-07-24T15:30:36.919Z,35.15
2018-07-24T15:33:05.702Z,35.26
2018-07-24T15:35:36.247Z,34.89
2018-07-24T15:38:05.334Z,34.89
2018-07-24T15:40:34.177Z,34.99
2018-07-24T15:43:02.891Z,34.99
2018-07-24T15:45:31.573Z,35.13
2018-07-24T15:48:00.294Z,34.96
2018-07-24T15:50:28.974Z,34.89
2018-07-24T15:52:57.665Z,34.72
2018-07-24T15:55:26.875Z,34.44
2018-07-24T15:57:55.512Z,34.45
2018-07-24T16:00:24.188Z,34.40
2018-07-24T16:02:52.885Z,34.36
2018-07-24T16:05:21.614Z,34.42
2018-07-24T16:07:50.572Z,34.36
2018-07-24T16:10:19.176Z,33.92
2018-07-24T16:12:47.851Z,33.60
2018-07-24T16:15:16.873Z,33.27
2018-07-24T16:17:45.614Z,33.19
2018-07-24T16:20:14.258Z,33.10
2018-07-24T16:22:42.975Z,33.05
2018-07-24T16:25:11.627Z,32.94
2018-07-24T16:27:40.323Z,32.99
2018-07-24T16:30:09.593Z,32.83
2018-07-24T16:32:38.265Z,32.77
2018-07-24T16:35:07.222Z,32.75
2018-07-24T16:37:36.015Z,32.75
2018-07-24T16:40:11.335Z,32.60
2018-07-24T16:42:39.962Z,32.48
2018-07-24T16:45:08.701Z,32.39
2018-07-24T16:47:37.347Z,32.42
2018-07-24T16:50:06.706Z,32.39
2018-07-24T16:52:35.411Z,32.13
2018-07-24T16:55:04.105Z,32.08
2018-07-24T16:57:32.751Z,32.14
2018-07-24T17:00:02.244Z,32.06
2018-07-24T17:02:30.926Z,31.95
2018-07-24T17:05:00.327Z,31.83
2018-07-24T17:07:29.004Z,31.67
2018-07-24T17:09:58.369Z,31.49
2018-07-24T17:12:27.005Z,31.42
2018-07-24T17:14:55.740Z,31.43
2018-07-24T17:17:25.466Z,31.61
2018-07-24T17:19:55.281Z,31.50
2018-07-24T17:22:24.081Z,31.32
2018-07-24T17:24:53.514Z,31.28
2018-07-24T17:27:22.274Z,31.20
2018-07-24T17:29:51.008Z,31.19
2018-07-24T17:32:19.684Z,31.16
2018-07-24T17:34:48.315Z,31.15
2018-07-24T17:37:17.003Z,31.10
2018-07-24T17:39:45.728Z,31.03
2018-07-24T17:42:14.476Z,30.98
2018-07-24T17:44:43.136Z,31.00
2018-07-24T17:47:11.738Z,31.00
2018-07-24T17:49:40.400Z,30.95
2018-07-24T17:52:09.065Z,30.88
2018-07-24T17:54:37.800Z,30.76
2018-07-24T17:57:06.632Z,30.70
2018-07-24T17:59:35.546Z,30.60
2018-07-24T18:02:04.266Z,30.52
2018-07-24T18:04:33.091Z,30.44
2018-07-24T18:07:02.020Z,30.40
2018-07-24T18:09:30.644Z,30.32
2018-07-24T18:12:00.391Z,30.26
2018-07-24T18:14:29.170Z,30.18
2018-07-24T18:16:57.965Z,30.21
2018-07-24T18:19:26.944Z,30.23
2018-07-24T18:21:55.656Z,30.22
2018-07-24T18:24:25.194Z,30.25
2018-07-24T18:26:56.795Z,30.28
2018-07-24T18:29:26.079Z,30.29
2018-07-24T18:31:56.153Z,30.30
2018-07-24T18:34:25.465Z,30.30
2018-07-24T18:36:58.697Z,30.27
2018-07-24T18:39:30.554Z,30.22
2018-07-24T18:48:09.581Z,30.01
2018-07-24T18:50:43.920Z,29.97
2018-07-24T18:53:15.509Z,29.92
2018-07-24T18:55:46.996Z,29.87
2018-07-24T18:58:18.783Z,29.83
2018-07-24T19:00:51.812Z,29.78
2018-07-24T19:03:26.507Z,29.75
2018-07-24T19:05:58.715Z,29.67
2018-07-24T19:08:29.652Z,29.62
2018-07-24T19:11:00.453Z,29.60
2018-07-24T19:13:29.743Z,29.51
2018-07-24T19:15:59.323Z,29.47
2018-07-24T19:18:34.563Z,29.42
2018-07-24T19:21:12.181Z,29.34
2018-07-24T19:23:46.323Z,29.26
2018-07-24T19:26:18.111Z,29.16
2018-07-24T19:28:48.255Z,29.09
2018-07-24T19:31:26.293Z,29.07
2018-07-24T19:34:00.686Z,29.04
2018-07-24T19:36:36.260Z,29.01
2018-07-24T19:39:14.661Z,28.93
2018-07-24T19:41:52.345Z,28.90
2018-07-24T19:44:26.822Z,28.78
2018-07-24T19:46:56.989Z,28.73
2018-07-24T19:49:27.135Z,28.68
2018-07-24T19:51:57.270Z,28.58
2018-07-24T19:54:26.530Z,28.51
2018-07-24T19:56:55.604Z,28.40
2018-07-24T19:59:24.423Z,28.35
2018-07-24T20:01:53.190Z,28.24
2018-07-24T20:04:21.902Z,28.22
2018-07-24T20:06:50.610Z,28.11
2018-07-24T20:09:19.378Z,28.03
2018-07-24T20:11:48.025Z,28.04
2018-07-24T20:14:17.858Z,27.98
2018-07-24T20:16:46.594Z,27.95
2018-07-24T20:19:16.634Z,27.86
2018-07-24T20:21:45.504Z,27.80
2018-07-24T20:24:14.288Z,27.70
2018-07-24T20:26:43.066Z,27.64
2018-07-24T20:29:12.057Z,27.60
2018-07-24T20:31:40.767Z,27.55
2018-07-24T20:34:09.529Z,27.57
2018-07-24T20:36:38.208Z,27.57
2018-07-24T20:39:10.045Z,27.54
2018-07-24T20:41:39.264Z,27.56
2018-07-24T20:44:08.307Z,27.53
2018-07-24T20:46:36.994Z,27.41
2018-07-24T20:49:05.954Z,27.29
2018-07-24T20:51:34.717Z,27.23
2018-07-24T20:54:03.578Z,27.18
2018-07-24T20:56:32.600Z,27.15
2018-07-24T20:59:01.311Z,27.04
2018-07-24T21:01:30.117Z,26.92
2018-07-24T21:03:58.792Z,26.81
2018-07-24T21:06:27.452Z,26.85
2018-07-24T21:08:56.493Z,26.85
2018-07-24T21:11:25.367Z,26.85
2018-07-24T21:13:54.029Z,26.79
2018-07-24T21:16:22.787Z,26.70
2018-07-24T21:18:52.188Z,26.67
2018-07-24T21:21:21.022Z,26.63
2018-07-24T21:23:50.165Z,26.63
2018-07-24T21:26:18.870Z,26.56
2018-07-24T21:28:47.556Z,26.46
2018-07-24T21:31:16.241Z,26.37
2018-07-24T21:33:44.971Z,26.24
2018-07-24T21:36:13.694Z,26.21
2018-07-24T21:38:42.423Z,26.24
2018-07-24T21:41:11.476Z,26.22
2018-07-24T21:43:40.172Z,26.18
2018-07-24T21:46:08.862Z,26.11
2018-07-24T21:48:37.826Z,26.10
2018-07-24T21:51:06.618Z,26.09
2018-07-24T21:53:35.579Z,26.04
2018-07-24T21:56:04.284Z,25.83
2018-07-24T21:58:33.016Z,25.80
2018-07-24T22:01:07.185Z,25.74
2018-07-24T22:03:35.969Z,25.71
2018-07-24T22:06:05.011Z,25.56
2018-07-24T22:08:33.730Z,25.56
2018-07-24T22:11:02.971Z,25.54
2018-07-24T22:13:32.356Z,25.38
2018-07-24T22:16:01.082Z,25.30
2018-07-24T22:18:29.758Z,25.27
2018-07-24T22:20:58.569Z,25.18
2018-07-24T22:23:27.510Z,25.14
2018-07-24T22:25:56.429Z,25.13
2018-07-24T22:28:25.711Z,25.13
2018-07-24T22:30:54.414Z,25.10
2018-07-24T22:33:23.984Z,25.13
2018-07-24T22:35:53.611Z,25.15
2018-07-24T22:38:22.879Z,25.08
2018-07-24T22:40:51.610Z,24.98
2018-07-24T22:43:20.282Z,24.84
2018-07-24T22:45:50.112Z,24.76
2018-07-24T22:48:18.998Z,24.80
2018-07-24T22:50:47.624Z,24.75
2018-07-24T22:53:16.354Z,24.70
2018-07-24T22:55:45.399Z,24.68
2018-07-24T22:58:14.176Z,24.70
2018-07-24T23:00:43.305Z,24.68
2018-07-24T23:03:12.198Z,24.66
2018-07-24T23:05:40.847Z,24.56
2018-07-24T23:08:09.553Z,24.47
2018-07-24T23:10:38.243Z,24.42
2018-07-24T23:13:06.877Z,24.37
2018-07-24T23:15:35.801Z,24.43
2018-07-24T23:18:04.403Z,24.40
2018-07-24T23:20:33.238Z,24.27
2018-07-24T23:23:01.878Z,24.21
2018-07-24T23:25:31.110Z,24.23
2018-07-24T23:28:00.397Z,24.27
2018-07-24T23:30:29.121Z,24.25
2018-07-24T23:32:58.728Z,24.21
2018-07-24T23:35:28.520Z,24.17
2018-07-24T23:37:57.436Z,24.12
2018-07-24T23:40:26.487Z,24.08
2018-07-24T23:42:55.395Z,24.00
2018-07-24T23:45:24.025Z,23.89
2018-07-24T23:47:52.752Z,23.94
2018-07-24T23:50:21.471Z,23.85
2018-07-24T23:52:50.149Z,23.86
2018-07-24T23:55:19.754Z,23.84
2018-07-24T23:57:48.471Z,23.76
